sensor_id;sensor_type;location;lat;lon;timestamp;P1;durP1;ratioP1;P2;durP2;ratioP2
25615;SDS011;13482;48.234;13.006;2023-08-12T00:00:40;1.90;;;1.10;;
25615;SDS011;13482;48.234;13.006;2023-08-12T00:03:07;1.60;;;1.00;;
25615;SDS011;13482;48.234;13.006;2023-08-12T00:05:35;2.58;;;1.48;;
25615;SDS011;13482;48.234;13.006;2023-08-12T00:08:03;2.38;;;1.25;;
25615;SDS011;13482;48.234;13.006;2023-08-12T00:10:31;1.45;;;0.98;;
25615;SDS011;13482;48.234;13.006;2023-08-12T00:12:58;2.88;;;1.33;;
25615;SDS011;13482;48.234;13.006;2023-08-12T00:15:26;3.85;;;1.30;;
25615;SDS011;13482;48.234;13.006;2023-08-12T00:17:53;2.42;;;1.30;;
25615;SDS011;13482;48.234;13.006;2023-08-12T00:20:21;1.88;;;1.10;;
25615;SDS011;13482;48.234;13.006;2023-08-12T00:22:48;2.88;;;1.35;;
25615;SDS011;13482;48.234;13.006;2023-08-12T00:25:16;1.75;;;1.10;;
25615;SDS011;13482;48.234;13.006;2023-08-12T00:27:43;2.50;;;1.48;;
25615;SDS011;13482;48.234;13.006;2023-08-12T00:30:10;3.20;;;1.45;;
25615;SDS011;13482;48.234;13.006;2023-08-12T00:32:38;2.00;;;1.30;;
25615;SDS011;13482;48.234;13.006;2023-08-12T00:35:07;2.45;;;1.23;;
25615;SDS011;13482;48.234;13.006;2023-08-12T00:37:35;3.33;;;1.40;;
25615;SDS011;13482;48.234;13.006;2023-08-12T00:40:02;2.92;;;1.42;;
25615;SDS011;13482;48.234;13.006;2023-08-12T00:42:31;2.95;;;1.60;;
25615;SDS011;13482;48.234;13.006;2023-08-12T00:44:58;2.47;;;1.42;;
25615;SDS011;13482;48.234;13.006;2023-08-12T00:47:26;2.22;;;1.27;;
25615;SDS011;13482;48.234;13.006;2023-08-12T00:49:55;3.40;;;1.38;;
25615;SDS011;13482;48.234;13.006;2023-08-12T00:52:25;2.47;;;1.30;;
25615;SDS011;13482;48.234;13.006;2023-08-12T00:54:53;3.88;;;1.55;;
25615;SDS011;13482;48.234;13.006;2023-08-12T00:57:21;3.42;;;1.58;;
25615;SDS011;13482;48.234;13.006;2023-08-12T00:59:49;1.85;;;1.10;;
25615;SDS011;13482;48.234;13.006;2023-08-12T01:02:16;3.45;;;1.23;;
25615;SDS011;13482;48.234;13.006;2023-08-12T01:04:44;3.83;;;1.38;;
25615;SDS011;13482;48.234;13.006;2023-08-12T01:07:11;1.98;;;1.40;;
25615;SDS011;13482;48.234;13.006;2023-08-12T01:09:39;2.53;;;1.60;;
25615;SDS011;13482;48.234;13.006;2023-08-12T01:15:07;2.08;;;1.33;;
25615;SDS011;13482;48.234;13.006;2023-08-12T01:17:38;2.05;;;1.23;;
25615;SDS011;13482;48.234;13.006;2023-08-12T01:20:09;5.18;;;1.42;;
25615;SDS011;13482;48.234;13.006;2023-08-12T01:22:41;1.80;;;1.10;;
25615;SDS011;13482;48.234;13.006;2023-08-12T01:27:40;2.78;;;1.20;;
25615;SDS011;13482;48.234;13.006;2023-08-12T01:30:08;2.17;;;1.30;;
25615;SDS011;13482;48.234;13.006;2023-08-12T01:35:35;2.20;;;1.23;;
25615;SDS011;13482;48.234;13.006;2023-08-12T01:38:08;2.58;;;1.55;;
25615;SDS011;13482;48.234;13.006;2023-08-12T01:40:38;2.85;;;1.50;;
25615;SDS011;13482;48.234;13.006;2023-08-12T01:43:09;2.28;;;1.38;;
25615;SDS011;13482;48.234;13.006;2023-08-12T01:45:37;2.53;;;1.42;;
25615;SDS011;13482;48.234;13.006;2023-08-12T01:48:05;2.38;;;1.40;;
25615;SDS011;13482;48.234;13.006;2023-08-12T01:50:33;2.40;;;1.30;;
25615;SDS011;13482;48.234;13.006;2023-08-12T01:53:00;2.10;;;1.23;;
25615;SDS011;13482;48.234;13.006;2023-08-12T01:55:28;1.90;;;1.27;;
25615;SDS011;13482;48.234;13.006;2023-08-12T01:57:55;2.10;;;1.10;;
25615;SDS011;13482;48.234;13.006;2023-08-12T02:00:23;3.15;;;1.40;;
25615;SDS011;13482;48.234;13.006;2023-08-12T02:02:50;2.65;;;1.48;;
25615;SDS011;13482;48.234;13.006;2023-08-12T02:05:18;2.20;;;1.50;;
25615;SDS011;13482;48.234;13.006;2023-08-12T02:07:45;1.92;;;1.40;;
25615;SDS011;13482;48.234;13.006;2023-08-12T02:10:13;1.67;;;1.17;;
25615;SDS011;13482;48.234;13.006;2023-08-12T02:12:41;1.67;;;0.98;;
25615;SDS011;13482;48.234;13.006;2023-08-12T02:15:09;1.88;;;1.27;;
25615;SDS011;13482;48.234;13.006;2023-08-12T02:17:36;2.53;;;1.30;;
25615;SDS011;13482;48.234;13.006;2023-08-12T02:20:05;2.20;;;1.30;;
25615;SDS011;13482;48.234;13.006;2023-08-12T02:22:33;2.20;;;1.58;;
25615;SDS011;13482;48.234;13.006;2023-08-12T02:25:02;3.75;;;1.50;;
25615;SDS011;13482;48.234;13.006;2023-08-12T02:27:29;2.30;;;1.33;;
25615;SDS011;13482;48.234;13.006;2023-08-12T02:29:57;3.15;;;1.23;;
25615;SDS011;13482;48.234;13.006;2023-08-12T02:32:24;2.80;;;1.73;;
25615;SDS011;13482;48.234;13.006;2023-08-12T02:34:52;2.13;;;1.50;;
25615;SDS011;13482;48.234;13.006;2023-08-12T02:37:19;2.83;;;1.42;;
25615;SDS011;13482;48.234;13.006;2023-08-12T02:39:47;2.42;;;1.30;;
25615;SDS011;13482;48.234;13.006;2023-08-12T02:42:14;2.58;;;1.30;;
25615;SDS011;13482;48.234;13.006;2023-08-12T02:44:42;1.90;;;1.40;;
25615;SDS011;13482;48.234;13.006;2023-08-12T02:47:09;2.45;;;1.60;;
25615;SDS011;13482;48.234;13.006;2023-08-12T02:49:37;2.47;;;1.48;;
25615;SDS011;13482;48.234;13.006;2023-08-12T02:52:04;1.70;;;1.08;;
25615;SDS011;13482;48.234;13.006;2023-08-12T02:54:32;1.77;;;1.10;;
25615;SDS011;13482;48.234;13.006;2023-08-12T02:56:59;1.83;;;1.10;;
25615;SDS011;13482;48.234;13.006;2023-08-12T02:59:27;1.98;;;1.40;;
25615;SDS011;13482;48.234;13.006;2023-08-12T03:01:56;1.42;;;1.15;;
25615;SDS011;13482;48.234;13.006;2023-08-12T03:04:24;1.75;;;1.02;;
25615;SDS011;13482;48.234;13.006;2023-08-12T03:06:51;1.77;;;1.15;;
25615;SDS011;13482;48.234;13.006;2023-08-12T03:09:18;1.77;;;1.15;;
25615;SDS011;13482;48.234;13.006;2023-08-12T03:11:46;1.88;;;1.38;;
25615;SDS011;13482;48.234;13.006;2023-08-12T03:14:14;2.00;;;1.38;;
25615;SDS011;13482;48.234;13.006;2023-08-12T03:16:41;2.40;;;1.35;;
25615;SDS011;13482;48.234;13.006;2023-08-12T03:19:09;1.30;;;1.00;;
25615;SDS011;13482;48.234;13.006;2023-08-12T03:21:36;2.80;;;1.20;;
25615;SDS011;13482;48.234;13.006;2023-08-12T03:24:04;3.08;;;1.42;;
25615;SDS011;13482;48.234;13.006;2023-08-12T03:26:32;2.85;;;1.05;;
25615;SDS011;13482;48.234;13.006;2023-08-12T03:28:59;1.73;;;1.13;;
25615;SDS011;13482;48.234;13.006;2023-08-12T03:31:27;1.45;;;0.80;;
25615;SDS011;13482;48.234;13.006;2023-08-12T03:33:54;2.05;;;1.00;;
25615;SDS011;13482;48.234;13.006;2023-08-12T03:36:22;1.48;;;1.20;;
25615;SDS011;13482;48.234;13.006;2023-08-12T03:38:49;1.88;;;1.10;;
25615;SDS011;13482;48.234;13.006;2023-08-12T03:41:16;1.90;;;1.20;;
25615;SDS011;13482;48.234;13.006;2023-08-12T03:43:44;1.40;;;0.90;;
25615;SDS011;13482;48.234;13.006;2023-08-12T03:46:11;1.45;;;1.20;;
25615;SDS011;13482;48.234;13.006;2023-08-12T03:48:39;2.72;;;2.00;;
25615;SDS011;13482;48.234;13.006;2023-08-12T03:51:06;3.30;;;2.83;;
25615;SDS011;13482;48.234;13.006;2023-08-12T03:53:33;3.80;;;3.00;;
25615;SDS011;13482;48.234;13.006;2023-08-12T03:56:01;3.47;;;2.97;;
25615;SDS011;13482;48.234;13.006;2023-08-12T03:58:28;2.55;;;2.00;;
25615;SDS011;13482;48.234;13.006;2023-08-12T04:00:56;2.70;;;2.10;;
25615;SDS011;13482;48.234;13.006;2023-08-12T04:03:24;2.65;;;2.20;;
25615;SDS011;13482;48.234;13.006;2023-08-12T04:05:52;2.90;;;1.67;;
25615;SDS011;13482;48.234;13.006;2023-08-12T04:08:20;2.45;;;2.03;;
25615;SDS011;13482;48.234;13.006;2023-08-12T04:10:50;3.42;;;1.80;;
25615;SDS011;13482;48.234;13.006;2023-08-12T04:13:18;2.30;;;1.70;;
25615;SDS011;13482;48.234;13.006;2023-08-12T04:15:49;2.53;;;1.85;;
25615;SDS011;13482;48.234;13.006;2023-08-12T04:18:19;5.00;;;1.75;;
25615;SDS011;13482;48.234;13.006;2023-08-12T04:20:52;1.85;;;1.25;;
25615;SDS011;13482;48.234;13.006;2023-08-12T04:23:20;2.10;;;1.48;;
25615;SDS011;13482;48.234;13.006;2023-08-12T04:25:48;2.22;;;1.60;;
25615;SDS011;13482;48.234;13.006;2023-08-12T04:28:16;1.80;;;1.40;;
25615;SDS011;13482;48.234;13.006;2023-08-12T04:30:47;1.90;;;1.30;;
25615;SDS011;13482;48.234;13.006;2023-08-12T04:33:19;2.00;;;1.40;;
25615;SDS011;13482;48.234;13.006;2023-08-12T04:35:46;2.58;;;1.60;;
25615;SDS011;13482;48.234;13.006;2023-08-12T04:38:14;1.85;;;1.23;;
25615;SDS011;13482;48.234;13.006;2023-08-12T04:40:42;1.33;;;1.00;;
25615;SDS011;13482;48.234;13.006;2023-08-12T04:43:10;2.78;;;1.60;;
25615;SDS011;13482;48.234;13.006;2023-08-12T04:45:39;2.42;;;1.60;;
25615;SDS011;13482;48.234;13.006;2023-08-12T04:48:07;2.00;;;1.60;;
25615;SDS011;13482;48.234;13.006;2023-08-12T04:50:38;2.72;;;1.63;;
25615;SDS011;13482;48.234;13.006;2023-08-12T04:53:06;2.30;;;1.80;;
25615;SDS011;13482;48.234;13.006;2023-08-12T04:55:34;2.30;;;1.60;;
25615;SDS011;13482;48.234;13.006;2023-08-12T04:58:02;2.60;;;1.80;;
25615;SDS011;13482;48.234;13.006;2023-08-12T05:00:30;2.35;;;1.75;;
25615;SDS011;13482;48.234;13.006;2023-08-12T05:02:58;2.15;;;1.60;;
25615;SDS011;13482;48.234;13.006;2023-08-12T05:05:26;3.30;;;1.65;;
25615;SDS011;13482;48.234;13.006;2023-08-12T05:07:53;2.50;;;1.65;;
25615;SDS011;13482;48.234;13.006;2023-08-12T05:10:21;2.63;;;1.98;;
25615;SDS011;13482;48.234;13.006;2023-08-12T05:12:48;2.65;;;2.03;;
25615;SDS011;13482;48.234;13.006;2023-08-12T05:15:18;2.30;;;1.88;;
25615;SDS011;13482;48.234;13.006;2023-08-12T05:17:47;2.20;;;1.77;;
25615;SDS011;13482;48.234;13.006;2023-08-12T05:20:14;2.40;;;1.83;;
25615;SDS011;13482;48.234;13.006;2023-08-12T05:22:42;2.13;;;1.70;;
25615;SDS011;13482;48.234;13.006;2023-08-12T05:25:09;3.00;;;2.20;;
25615;SDS011;13482;48.234;13.006;2023-08-12T05:27:36;3.10;;;1.80;;
25615;SDS011;13482;48.234;13.006;2023-08-12T05:30:05;2.45;;;1.85;;
25615;SDS011;13482;48.234;13.006;2023-08-12T05:32:33;2.70;;;2.20;;
25615;SDS011;13482;48.234;13.006;2023-08-12T05:35:01;3.08;;;2.20;;
25615;SDS011;13482;48.234;13.006;2023-08-12T05:37:28;3.20;;;2.00;;
25615;SDS011;13482;48.234;13.006;2023-08-12T05:39:56;2.58;;;2.00;;
25615;SDS011;13482;48.234;13.006;2023-08-12T05:42:23;3.00;;;2.17;;
25615;SDS011;13482;48.234;13.006;2023-08-12T05:44:50;2.75;;;2.20;;
25615;SDS011;13482;48.234;13.006;2023-08-12T05:47:18;2.55;;;1.98;;
25615;SDS011;13482;48.234;13.006;2023-08-12T05:49:46;3.03;;;2.10;;
25615;SDS011;13482;48.234;13.006;2023-08-12T05:52:13;2.55;;;2.05;;
25615;SDS011;13482;48.234;13.006;2023-08-12T05:54:42;3.00;;;2.05;;
25615;SDS011;13482;48.234;13.006;2023-08-12T05:57:10;2.47;;;2.00;;
25615;SDS011;13482;48.234;13.006;2023-08-12T05:59:38;2.50;;;1.92;;
25615;SDS011;13482;48.234;13.006;2023-08-12T06:02:07;3.15;;;2.08;;
25615;SDS011;13482;48.234;13.006;2023-08-12T06:04:36;2.40;;;2.00;;
25615;SDS011;13482;48.234;13.006;2023-08-12T06:07:05;2.72;;;2.10;;
25615;SDS011;13482;48.234;13.006;2023-08-12T06:09:33;3.38;;;1.95;;
25615;SDS011;13482;48.234;13.006;2023-08-12T06:12:01;5.00;;;2.30;;
25615;SDS011;13482;48.234;13.006;2023-08-12T06:14:30;3.25;;;1.80;;
25615;SDS011;13482;48.234;13.006;2023-08-12T06:16:58;2.28;;;1.88;;
25615;SDS011;13482;48.234;13.006;2023-08-12T06:19:27;2.35;;;2.10;;
25615;SDS011;13482;48.234;13.006;2023-08-12T06:21:55;3.10;;;2.20;;
25615;SDS011;13482;48.234;13.006;2023-08-12T06:24:24;2.97;;;2.22;;
25615;SDS011;13482;48.234;13.006;2023-08-12T06:26:53;2.58;;;2.00;;
25615;SDS011;13482;48.234;13.006;2023-08-12T06:29:22;2.72;;;1.90;;
25615;SDS011;13482;48.234;13.006;2023-08-12T06:31:52;3.13;;;2.30;;
25615;SDS011;13482;48.234;13.006;2023-08-12T06:34:19;2.80;;;1.95;;
25615;SDS011;13482;48.234;13.006;2023-08-12T06:36:48;3.13;;;1.85;;
25615;SDS011;13482;48.234;13.006;2023-08-12T06:39:16;2.45;;;1.75;;
25615;SDS011;13482;48.234;13.006;2023-08-12T06:41:43;2.78;;;1.90;;
25615;SDS011;13482;48.234;13.006;2023-08-12T06:44:11;3.55;;;2.30;;
25615;SDS011;13482;48.234;13.006;2023-08-12T06:46:38;2.92;;;2.00;;
25615;SDS011;13482;48.234;13.006;2023-08-12T06:49:06;2.50;;;1.80;;
25615;SDS011;13482;48.234;13.006;2023-08-12T06:51:34;3.20;;;2.05;;
25615;SDS011;13482;48.234;13.006;2023-08-12T06:54:01;2.10;;;1.70;;
25615;SDS011;13482;48.234;13.006;2023-08-12T06:56:29;3.42;;;1.90;;
25615;SDS011;13482;48.234;13.006;2023-08-12T06:58:57;2.13;;;1.60;;
25615;SDS011;13482;48.234;13.006;2023-08-12T07:01:24;2.38;;;1.42;;
25615;SDS011;13482;48.234;13.006;2023-08-12T07:03:52;3.17;;;1.60;;
25615;SDS011;13482;48.234;13.006;2023-08-12T07:06:19;2.78;;;1.30;;
25615;SDS011;13482;48.234;13.006;2023-08-12T07:08:47;3.33;;;1.95;;
25615;SDS011;13482;48.234;13.006;2023-08-12T07:11:14;2.15;;;1.65;;
25615;SDS011;13482;48.234;13.006;2023-08-12T07:13:42;1.75;;;1.27;;
25615;SDS011;13482;48.234;13.006;2023-08-12T07:16:12;2.58;;;1.58;;
25615;SDS011;13482;48.234;13.006;2023-08-12T07:18:40;1.95;;;1.38;;
25615;SDS011;13482;48.234;13.006;2023-08-12T07:21:07;1.85;;;1.42;;
25615;SDS011;13482;48.234;13.006;2023-08-12T07:23:35;2.90;;;1.60;;
25615;SDS011;13482;48.234;13.006;2023-08-12T07:26:02;2.78;;;1.33;;
25615;SDS011;13482;48.234;13.006;2023-08-12T07:28:29;1.90;;;1.30;;
25615;SDS011;13482;48.234;13.006;2023-08-12T07:30:57;1.73;;;1.38;;
25615;SDS011;13482;48.234;13.006;2023-08-12T07:33:27;1.63;;;1.17;;
25615;SDS011;13482;48.234;13.006;2023-08-12T07:35:55;2.10;;;1.60;;
25615;SDS011;13482;48.234;13.006;2023-08-12T07:38:23;1.95;;;1.33;;
25615;SDS011;13482;48.234;13.006;2023-08-12T07:40:50;2.08;;;1.58;;
25615;SDS011;13482;48.234;13.006;2023-08-12T07:43:18;2.13;;;1.30;;
25615;SDS011;13482;48.234;13.006;2023-08-12T07:45:50;2.10;;;1.45;;
25615;SDS011;13482;48.234;13.006;2023-08-12T07:48:35;2.03;;;1.40;;
25615;SDS011;13482;48.234;13.006;2023-08-12T07:51:03;1.48;;;1.17;;
25615;SDS011;13482;48.234;13.006;2023-08-12T07:53:30;3.28;;;1.45;;
25615;SDS011;13482;48.234;13.006;2023-08-12T07:55:58;2.55;;;1.65;;
25615;SDS011;13482;48.234;13.006;2023-08-12T07:58:25;2.25;;;1.40;;
25615;SDS011;13482;48.234;13.006;2023-08-12T08:00:53;2.08;;;1.08;;
25615;SDS011;13482;48.234;13.006;2023-08-12T08:03:20;1.85;;;1.30;;
25615;SDS011;13482;48.234;13.006;2023-08-12T08:05:48;2.40;;;1.60;;
25615;SDS011;13482;48.234;13.006;2023-08-12T08:08:15;2.90;;;1.40;;
25615;SDS011;13482;48.234;13.006;2023-08-12T08:10:43;1.67;;;1.27;;
25615;SDS011;13482;48.234;13.006;2023-08-12T08:13:10;2.00;;;1.42;;
25615;SDS011;13482;48.234;13.006;2023-08-12T08:15:37;1.95;;;1.20;;
25615;SDS011;13482;48.234;13.006;2023-08-12T08:18:05;2.75;;;1.30;;
25615;SDS011;13482;48.234;13.006;2023-08-12T08:20:34;1.70;;;1.10;;
25615;SDS011;13482;48.234;13.006;2023-08-12T08:23:01;2.35;;;1.17;;
25615;SDS011;13482;48.234;13.006;2023-08-12T08:25:29;1.50;;;1.10;;
25615;SDS011;13482;48.234;13.006;2023-08-12T08:27:57;1.70;;;1.17;;
25615;SDS011;13482;48.234;13.006;2023-08-12T08:30:24;2.75;;;1.20;;
25615;SDS011;13482;48.234;13.006;2023-08-12T08:32:52;1.58;;;1.20;;
25615;SDS011;13482;48.234;13.006;2023-08-12T08:35:20;2.08;;;1.23;;
25615;SDS011;13482;48.234;13.006;2023-08-12T08:37:48;1.85;;;1.30;;
25615;SDS011;13482;48.234;13.006;2023-08-12T08:40:15;1.67;;;1.20;;
25615;SDS011;13482;48.234;13.006;2023-08-12T08:42:47;1.85;;;1.30;;
25615;SDS011;13482;48.234;13.006;2023-08-12T08:45:21;2.00;;;1.30;;
25615;SDS011;13482;48.234;13.006;2023-08-12T08:47:52;2.10;;;1.50;;
25615;SDS011;13482;48.234;13.006;2023-08-12T08:50:20;1.48;;;1.17;;
25615;SDS011;13482;48.234;13.006;2023-08-12T08:52:48;1.67;;;1.38;;
25615;SDS011;13482;48.234;13.006;2023-08-12T08:55:18;2.00;;;1.27;;
25615;SDS011;13482;48.234;13.006;2023-08-12T08:57:48;1.92;;;1.27;;
25615;SDS011;13482;48.234;13.006;2023-08-12T09:00:16;2.28;;;1.10;;
25615;SDS011;13482;48.234;13.006;2023-08-12T09:02:46;1.73;;;1.20;;
25615;SDS011;13482;48.234;13.006;2023-08-12T09:05:17;1.38;;;1.08;;
25615;SDS011;13482;48.234;13.006;2023-08-12T09:07:47;1.40;;;1.02;;
25615;SDS011;13482;48.234;13.006;2023-08-12T09:10:17;2.80;;;1.23;;
25615;SDS011;13482;48.234;13.006;2023-08-12T09:12:47;1.38;;;1.08;;
25615;SDS011;13482;48.234;13.006;2023-08-12T09:15:16;1.50;;;1.17;;
25615;SDS011;13482;48.234;13.006;2023-08-12T09:17:44;1.45;;;1.17;;
25615;SDS011;13482;48.234;13.006;2023-08-12T09:20:12;2.05;;;1.17;;
25615;SDS011;13482;48.234;13.006;2023-08-12T09:22:41;1.73;;;1.13;;
25615;SDS011;13482;48.234;13.006;2023-08-12T09:25:09;2.47;;;1.52;;
25615;SDS011;13482;48.234;13.006;2023-08-12T09:27:37;1.20;;;0.95;;
25615;SDS011;13482;48.234;13.006;2023-08-12T09:30:05;1.23;;;1.10;;
25615;SDS011;13482;48.234;13.006;2023-08-12T09:32:35;1.20;;;1.10;;
25615;SDS011;13482;48.234;13.006;2023-08-12T09:35:05;1.50;;;1.20;;
25615;SDS011;13482;48.234;13.006;2023-08-12T09:37:42;2.20;;;0.90;;
25615;SDS011;13482;48.234;13.006;2023-08-12T09:40:10;1.13;;;0.80;;
25615;SDS011;13482;48.234;13.006;2023-08-12T09:42:44;1.58;;;0.80;;
25615;SDS011;13482;48.234;13.006;2023-08-12T09:45:13;1.00;;;0.77;;
25615;SDS011;13482;48.234;13.006;2023-08-12T09:47:44;1.90;;;1.00;;
25615;SDS011;13482;48.234;13.006;2023-08-12T09:50:11;1.63;;;1.08;;
25615;SDS011;13482;48.234;13.006;2023-08-12T09:52:40;1.45;;;0.90;;
25615;SDS011;13482;48.234;13.006;2023-08-12T09:55:08;2.25;;;0.90;;
25615;SDS011;13482;48.234;13.006;2023-08-12T09:57:38;1.10;;;0.90;;
25615;SDS011;13482;48.234;13.006;2023-08-12T10:00:09;1.30;;;0.88;;
25615;SDS011;13482;48.234;13.006;2023-08-12T10:02:47;1.13;;;0.85;;
25615;SDS011;13482;48.234;13.006;2023-08-12T10:07:49;1.27;;;0.83;;
25615;SDS011;13482;48.234;13.006;2023-08-12T10:10:16;1.45;;;0.90;;
25615;SDS011;13482;48.234;13.006;2023-08-12T10:12:45;1.33;;;0.85;;
25615;SDS011;13482;48.234;13.006;2023-08-12T10:15:13;1.33;;;0.85;;
25615;SDS011;13482;48.234;13.006;2023-08-12T10:17:42;1.23;;;0.90;;
25615;SDS011;13482;48.234;13.006;2023-08-12T10:20:18;1.20;;;0.85;;
25615;SDS011;13482;48.234;13.006;2023-08-12T10:22:50;1.20;;;0.90;;
25615;SDS011;13482;48.234;13.006;2023-08-12T10:25:19;1.42;;;1.00;;
25615;SDS011;13482;48.234;13.006;2023-08-12T10:27:50;1.17;;;0.90;;
25615;SDS011;13482;48.234;13.006;2023-08-12T10:30:20;1.30;;;0.85;;
25615;SDS011;13482;48.234;13.006;2023-08-12T10:32:47;1.15;;;0.80;;
25615;SDS011;13482;48.234;13.006;2023-08-12T10:35:16;1.63;;;0.70;;
25615;SDS011;13482;48.234;13.006;2023-08-12T10:37:47;0.95;;;0.77;;
25615;SDS011;13482;48.234;13.006;2023-08-12T10:40:21;1.17;;;0.70;;
25615;SDS011;13482;48.234;13.006;2023-08-12T10:42:49;0.85;;;0.60;;
25615;SDS011;13482;48.234;13.006;2023-08-12T10:45:17;0.90;;;0.70;;
25615;SDS011;13482;48.234;13.006;2023-08-12T10:47:51;0.80;;;0.68;;
25615;SDS011;13482;48.234;13.006;2023-08-12T10:50:26;0.95;;;0.73;;
25615;SDS011;13482;48.234;13.006;2023-08-12T10:52:53;1.13;;;0.82;;
25615;SDS011;13482;48.234;13.006;2023-08-12T10:55:22;1.05;;;0.85;;
25615;SDS011;13482;48.234;13.006;2023-08-12T10:57:53;2.00;;;0.80;;
25615;SDS011;13482;48.234;13.006;2023-08-12T11:00:27;1.25;;;0.80;;
25615;SDS011;13482;48.234;13.006;2023-08-12T11:02:56;1.17;;;0.75;;
25615;SDS011;13482;48.234;13.006;2023-08-12T11:05:26;1.20;;;0.80;;
25615;SDS011;13482;48.234;13.006;2023-08-12T11:08:04;1.30;;;0.93;;
25615;SDS011;13482;48.234;13.006;2023-08-12T11:10:33;1.60;;;0.70;;
25615;SDS011;13482;48.234;13.006;2023-08-12T11:13:02;1.38;;;0.77;;
25615;SDS011;13482;48.234;13.006;2023-08-12T11:15:34;1.02;;;0.82;;
25615;SDS011;13482;48.234;13.006;2023-08-12T11:18:14;1.10;;;0.70;;
25615;SDS011;13482;48.234;13.006;2023-08-12T11:20:45;0.93;;;0.77;;
25615;SDS011;13482;48.234;13.006;2023-08-12T11:23:16;0.85;;;0.70;;
25615;SDS011;13482;48.234;13.006;2023-08-12T11:25:44;1.08;;;0.77;;
25615;SDS011;13482;48.234;13.006;2023-08-12T11:28:12;1.00;;;0.90;;
25615;SDS011;13482;48.234;13.006;2023-08-12T11:30:40;3.78;;;0.93;;
25615;SDS011;13482;48.234;13.006;2023-08-12T11:33:10;0.80;;;0.60;;
25615;SDS011;13482;48.234;13.006;2023-08-12T11:35:38;1.15;;;0.80;;
25615;SDS011;13482;48.234;13.006;2023-08-12T11:38:06;0.98;;;0.75;;
25615;SDS011;13482;48.234;13.006;2023-08-12T11:40:34;0.77;;;0.60;;
25615;SDS011;13482;48.234;13.006;2023-08-12T11:43:02;0.90;;;0.70;;
25615;SDS011;13482;48.234;13.006;2023-08-12T11:45:32;1.20;;;0.70;;
25615;SDS011;13482;48.234;13.006;2023-08-12T11:48:00;2.13;;;0.80;;
25615;SDS011;13482;48.234;13.006;2023-08-12T11:50:27;0.70;;;0.60;;
25615;SDS011;13482;48.234;13.006;2023-08-12T11:52:55;1.00;;;0.70;;
25615;SDS011;13482;48.234;13.006;2023-08-12T11:55:25;0.90;;;0.77;;
25615;SDS011;13482;48.234;13.006;2023-08-12T11:57:52;0.82;;;0.70;;
25615;SDS011;13482;48.234;13.006;2023-08-12T12:00:20;1.45;;;0.80;;
25615;SDS011;13482;48.234;13.006;2023-08-12T12:02:54;1.00;;;0.70;;
25615;SDS011;13482;48.234;13.006;2023-08-12T12:05:27;1.88;;;0.80;;
25615;SDS011;13482;48.234;13.006;2023-08-12T12:08:00;1.00;;;0.80;;
25615;SDS011;13482;48.234;13.006;2023-08-12T12:10:29;0.90;;;0.80;;
25615;SDS011;13482;48.234;13.006;2023-08-12T12:13:01;1.02;;;0.80;;
25615;SDS011;13482;48.234;13.006;2023-08-12T12:15:41;0.60;;;0.60;;
25615;SDS011;13482;48.234;13.006;2023-08-12T12:18:13;0.85;;;0.70;;
25615;SDS011;13482;48.234;13.006;2023-08-12T12:20:54;0.75;;;0.65;;
25615;SDS011;13482;48.234;13.006;2023-08-12T12:23:26;1.13;;;0.80;;
25615;SDS011;13482;48.234;13.006;2023-08-12T12:26:00;1.02;;;0.80;;
25615;SDS011;13482;48.234;13.006;2023-08-12T12:28:29;2.70;;;0.63;;
25615;SDS011;13482;48.234;13.006;2023-08-12T12:30:57;1.10;;;0.80;;
25615;SDS011;13482;48.234;13.006;2023-08-12T12:33:25;1.15;;;0.80;;
25615;SDS011;13482;48.234;13.006;2023-08-12T12:35:52;0.95;;;0.80;;
25615;SDS011;13482;48.234;13.006;2023-08-12T12:38:26;0.68;;;0.65;;
25615;SDS011;13482;48.234;13.006;2023-08-12T12:40:54;1.25;;;0.80;;
25615;SDS011;13482;48.234;13.006;2023-08-12T12:43:21;1.55;;;0.80;;
25615;SDS011;13482;48.234;13.006;2023-08-12T12:45:49;0.70;;;0.70;;
25615;SDS011;13482;48.234;13.006;2023-08-12T12:48:16;1.25;;;0.70;;
25615;SDS011;13482;48.234;13.006;2023-08-12T12:50:44;1.00;;;0.68;;
25615;SDS011;13482;48.234;13.006;2023-08-12T12:53:11;0.60;;;0.50;;
25615;SDS011;13482;48.234;13.006;2023-08-12T12:55:38;1.15;;;0.65;;
25615;SDS011;13482;48.234;13.006;2023-08-12T12:58:06;1.10;;;0.80;;
25615;SDS011;13482;48.234;13.006;2023-08-12T13:00:37;0.75;;;0.65;;
25615;SDS011;13482;48.234;13.006;2023-08-12T13:03:05;1.00;;;0.60;;
25615;SDS011;13482;48.234;13.006;2023-08-12T13:05:32;1.30;;;0.90;;
25615;SDS011;13482;48.234;13.006;2023-08-12T13:08:00;1.10;;;0.90;;
25615;SDS011;13482;48.234;13.006;2023-08-12T13:10:27;1.05;;;0.75;;
25615;SDS011;13482;48.234;13.006;2023-08-12T13:12:55;1.58;;;0.80;;
25615;SDS011;13482;48.234;13.006;2023-08-12T13:15:23;0.82;;;0.70;;
25615;SDS011;13482;48.234;13.006;2023-08-12T13:17:53;1.23;;;0.80;;
25615;SDS011;13482;48.234;13.006;2023-08-12T13:20:21;1.27;;;0.60;;
25615;SDS011;13482;48.234;13.006;2023-08-12T13:22:48;1.50;;;0.80;;
25615;SDS011;13482;48.234;13.006;2023-08-12T13:25:16;1.02;;;0.77;;
25615;SDS011;13482;48.234;13.006;2023-08-12T13:27:44;1.42;;;0.80;;
25615;SDS011;13482;48.234;13.006;2023-08-12T13:30:11;1.20;;;0.75;;
25615;SDS011;13482;48.234;13.006;2023-08-12T13:32:39;2.55;;;1.00;;
25615;SDS011;13482;48.234;13.006;2023-08-12T13:35:06;1.00;;;0.75;;
25615;SDS011;13482;48.234;13.006;2023-08-12T13:37:34;1.25;;;0.85;;
25615;SDS011;13482;48.234;13.006;2023-08-12T13:40:02;0.70;;;0.70;;
25615;SDS011;13482;48.234;13.006;2023-08-12T13:42:29;1.40;;;1.00;;
25615;SDS011;13482;48.234;13.006;2023-08-12T13:44:57;1.00;;;0.80;;
25615;SDS011;13482;48.234;13.006;2023-08-12T13:47:26;1.05;;;0.70;;
25615;SDS011;13482;48.234;13.006;2023-08-12T13:49:54;0.90;;;0.75;;
25615;SDS011;13482;48.234;13.006;2023-08-12T13:52:21;1.15;;;0.90;;
25615;SDS011;13482;48.234;13.006;2023-08-12T13:54:49;1.20;;;0.70;;
25615;SDS011;13482;48.234;13.006;2023-08-12T13:57:17;1.35;;;0.90;;
25615;SDS011;13482;48.234;13.006;2023-08-12T13:59:44;1.02;;;0.70;;
25615;SDS011;13482;48.234;13.006;2023-08-12T14:02:14;0.90;;;0.80;;
25615;SDS011;13482;48.234;13.006;2023-08-12T14:04:42;0.90;;;0.70;;
25615;SDS011;13482;48.234;13.006;2023-08-12T14:07:10;0.98;;;0.88;;
25615;SDS011;13482;48.234;13.006;2023-08-12T14:09:37;1.85;;;1.00;;
25615;SDS011;13482;48.234;13.006;2023-08-12T14:12:05;0.98;;;0.73;;
25615;SDS011;13482;48.234;13.006;2023-08-12T14:14:33;1.02;;;0.80;;
25615;SDS011;13482;48.234;13.006;2023-08-12T14:17:00;1.20;;;0.90;;
25615;SDS011;13482;48.234;13.006;2023-08-12T14:19:28;1.00;;;0.77;;
25615;SDS011;13482;48.234;13.006;2023-08-12T14:21:55;1.15;;;0.70;;
25615;SDS011;13482;48.234;13.006;2023-08-12T14:24:22;0.90;;;0.80;;
25615;SDS011;13482;48.234;13.006;2023-08-12T14:26:50;0.88;;;0.70;;
25615;SDS011;13482;48.234;13.006;2023-08-12T14:29:18;1.10;;;0.80;;
25615;SDS011;13482;48.234;13.006;2023-08-12T14:31:46;1.13;;;0.90;;
25615;SDS011;13482;48.234;13.006;2023-08-12T14:34:13;1.85;;;0.90;;
25615;SDS011;13482;48.234;13.006;2023-08-12T14:36:40;0.98;;;0.80;;
25615;SDS011;13482;48.234;13.006;2023-08-12T14:39:08;1.08;;;0.88;;
25615;SDS011;13482;48.234;13.006;2023-08-12T14:41:35;1.20;;;0.90;;
25615;SDS011;13482;48.234;13.006;2023-08-12T14:44:03;1.88;;;0.80;;
25615;SDS011;13482;48.234;13.006;2023-08-12T14:46:30;1.00;;;0.90;;
25615;SDS011;13482;48.234;13.006;2023-08-12T14:48:58;1.30;;;1.00;;
25615;SDS011;13482;48.234;13.006;2023-08-12T14:51:26;1.05;;;0.82;;